sensor_id;sensor_type;location;lat;lon;timestamp;P1;durP1;ratioP1;P2;durP2;ratioP2
69026;SDS011;56080;47.594;19.116;2022-07-29T00:02:22;5.20;;;3.60;;
69026;SDS011;56080;47.594;19.116;2022-07-29T00:07:24;5.20;;;3.60;;
69026;SDS011;56080;47.594;19.116;2022-07-29T00:12:24;5.70;;;4.20;;
69026;SDS011;56080;47.594;19.116;2022-07-29T00:17:24;5.70;;;4.20;;
69026;SDS011;56080;47.594;19.116;2022-07-29T00:22:22;5.70;;;3.70;;
69026;SDS011;56080;47.594;19.116;2022-07-29T00:27:22;5.70;;;3.70;;
69026;SDS011;56080;47.594;19.116;2022-07-29T00:32:22;6.30;;;4.30;;
69026;SDS011;56080;47.594;19.116;2022-07-29T00:37:22;6.30;;;4.30;;
69026;SDS011;56080;47.594;19.116;2022-07-29T00:42:22;5.60;;;3.70;;
69026;SDS011;56080;47.594;19.116;2022-07-29T00:47:23;5.60;;;3.70;;
69026;SDS011;56080;47.594;19.116;2022-07-29T00:52:23;5.50;;;4.00;;
69026;SDS011;56080;47.594;19.116;2022-07-29T00:57:23;5.50;;;4.00;;
69026;SDS011;56080;47.594;19.116;2022-07-29T01:02:23;6.40;;;4.00;;
69026;SDS011;56080;47.594;19.116;2022-07-29T01:07:23;6.40;;;4.00;;
69026;SDS011;56080;47.594;19.116;2022-07-29T01:12:25;5.70;;;3.90;;
69026;SDS011;56080;47.594;19.116;2022-07-29T01:17:24;5.70;;;3.90;;
69026;SDS011;56080;47.594;19.116;2022-07-29T01:27:38;5.70;;;4.10;;
69026;SDS011;56080;47.594;19.116;2022-07-29T01:32:36;6.00;;;3.80;;
69026;SDS011;56080;47.594;19.116;2022-07-29T01:42:36;6.10;;;4.30;;
69026;SDS011;56080;47.594;19.116;2022-07-29T01:47:26;6.10;;;4.30;;
69026;SDS011;56080;47.594;19.116;2022-07-29T01:52:33;6.10;;;4.30;;
69026;SDS011;56080;47.594;19.116;2022-07-29T01:57:26;6.10;;;4.30;;
69026;SDS011;56080;47.594;19.116;2022-07-29T02:02:25;5.50;;;4.10;;
69026;SDS011;56080;47.594;19.116;2022-07-29T02:07:25;5.50;;;4.10;;
69026;SDS011;56080;47.594;19.116;2022-07-29T02:12:23;6.10;;;4.20;;
69026;SDS011;56080;47.594;19.116;2022-07-29T02:17:24;6.10;;;4.20;;
69026;SDS011;56080;47.594;19.116;2022-07-29T02:22:23;6.20;;;4.00;;
69026;SDS011;56080;47.594;19.116;2022-07-29T02:27:24;6.20;;;4.00;;
69026;SDS011;56080;47.594;19.116;2022-07-29T02:32:23;5.40;;;3.80;;
69026;SDS011;56080;47.594;19.116;2022-07-29T02:37:23;5.40;;;3.80;;
69026;SDS011;56080;47.594;19.116;2022-07-29T02:42:26;6.00;;;4.00;;
69026;SDS011;56080;47.594;19.116;2022-07-29T02:52:37;6.50;;;4.50;;
69026;SDS011;56080;47.594;19.116;2022-07-29T02:57:30;6.50;;;4.50;;
69026;SDS011;56080;47.594;19.116;2022-07-29T03:02:25;6.40;;;4.20;;
69026;SDS011;56080;47.594;19.116;2022-07-29T03:07:24;6.40;;;4.20;;
69026;SDS011;56080;47.594;19.116;2022-07-29T03:12:23;6.50;;;4.40;;
69026;SDS011;56080;47.594;19.116;2022-07-29T03:17:23;6.50;;;4.40;;
69026;SDS011;56080;47.594;19.116;2022-07-29T03:22:23;6.20;;;4.60;;
69026;SDS011;56080;47.594;19.116;2022-07-29T03:27:23;6.20;;;4.60;;
69026;SDS011;56080;47.594;19.116;2022-07-29T03:32:22;6.50;;;5.00;;
69026;SDS011;56080;47.594;19.116;2022-07-29T03:37:22;6.50;;;5.00;;
69026;SDS011;56080;47.594;19.116;2022-07-29T03:42:25;6.20;;;4.80;;
69026;SDS011;56080;47.594;19.116;2022-07-29T03:47:24;6.20;;;4.80;;
69026;SDS011;56080;47.594;19.116;2022-07-29T03:52:23;7.10;;;5.00;;
69026;SDS011;56080;47.594;19.116;2022-07-29T03:57:25;7.10;;;5.00;;
69026;SDS011;56080;47.594;19.116;2022-07-29T04:02:23;7.10;;;4.80;;
69026;SDS011;56080;47.594;19.116;2022-07-29T04:07:23;7.10;;;4.80;;
69026;SDS011;56080;47.594;19.116;2022-07-29T04:12:23;7.00;;;5.00;;
69026;SDS011;56080;47.594;19.116;2022-07-29T04:17:22;7.00;;;5.00;;
69026;SDS011;56080;47.594;19.116;2022-07-29T04:22:22;6.90;;;4.80;;
69026;SDS011;56080;47.594;19.116;2022-07-29T04:27:23;6.90;;;4.80;;
69026;SDS011;56080;47.594;19.116;2022-07-29T04:32:24;6.30;;;4.80;;
69026;SDS011;56080;47.594;19.116;2022-07-29T04:37:22;6.30;;;4.80;;
69026;SDS011;56080;47.594;19.116;2022-07-29T04:42:23;6.90;;;4.90;;
69026;SDS011;56080;47.594;19.116;2022-07-29T04:47:22;6.90;;;4.90;;
69026;SDS011;56080;47.594;19.116;2022-07-29T04:52:22;6.50;;;4.90;;
69026;SDS011;56080;47.594;19.116;2022-07-29T04:57:22;6.50;;;4.90;;
69026;SDS011;56080;47.594;19.116;2022-07-29T05:02:23;5.90;;;4.60;;
69026;SDS011;56080;47.594;19.116;2022-07-29T05:07:22;5.90;;;4.60;;
69026;SDS011;56080;47.594;19.116;2022-07-29T05:12:23;7.40;;;4.90;;
69026;SDS011;56080;47.594;19.116;2022-07-29T05:17:23;7.40;;;4.90;;
69026;SDS011;56080;47.594;19.116;2022-07-29T05:22:22;7.20;;;4.90;;
69026;SDS011;56080;47.594;19.116;2022-07-29T05:27:23;7.20;;;4.90;;
69026;SDS011;56080;47.594;19.116;2022-07-29T05:32:23;7.60;;;4.20;;
69026;SDS011;56080;47.594;19.116;2022-07-29T05:37:23;7.60;;;4.20;;
69026;SDS011;56080;47.594;19.116;2022-07-29T05:42:23;8.20;;;4.60;;
69026;SDS011;56080;47.594;19.116;2022-07-29T05:47:23;8.20;;;4.60;;
69026;SDS011;56080;47.594;19.116;2022-07-29T05:52:23;6.20;;;4.30;;
69026;SDS011;56080;47.594;19.116;2022-07-29T05:57:31;6.20;;;4.30;;
69026;SDS011;56080;47.594;19.116;2022-07-29T06:02:22;9.60;;;4.40;;
69026;SDS011;56080;47.594;19.116;2022-07-29T06:07:22;9.60;;;4.40;;
69026;SDS011;56080;47.594;19.116;2022-07-29T06:12:23;7.60;;;3.80;;
69026;SDS011;56080;47.594;19.116;2022-07-29T06:17:22;7.60;;;3.80;;
69026;SDS011;56080;47.594;19.116;2022-07-29T06:22:24;6.20;;;4.10;;
69026;SDS011;56080;47.594;19.116;2022-07-29T06:27:22;6.20;;;4.10;;
69026;SDS011;56080;47.594;19.116;2022-07-29T06:32:23;6.00;;;3.80;;
69026;SDS011;56080;47.594;19.116;2022-07-29T06:37:28;6.00;;;3.80;;
69026;SDS011;56080;47.594;19.116;2022-07-29T06:42:22;7.90;;;4.30;;
69026;SDS011;56080;47.594;19.116;2022-07-29T06:47:22;7.90;;;4.30;;
69026;SDS011;56080;47.594;19.116;2022-07-29T06:52:23;6.00;;;3.90;;
69026;SDS011;56080;47.594;19.116;2022-07-29T06:57:22;6.00;;;3.90;;
69026;SDS011;56080;47.594;19.116;2022-07-29T07:02:23;6.10;;;4.00;;
69026;SDS011;56080;47.594;19.116;2022-07-29T07:07:22;6.10;;;4.00;;
69026;SDS011;56080;47.594;19.116;2022-07-29T07:12:24;6.20;;;4.00;;
69026;SDS011;56080;47.594;19.116;2022-07-29T07:17:22;6.20;;;4.00;;
69026;SDS011;56080;47.594;19.116;2022-07-29T07:22:22;5.40;;;3.60;;
69026;SDS011;56080;47.594;19.116;2022-07-29T07:27:23;5.40;;;3.60;;
69026;SDS011;56080;47.594;19.116;2022-07-29T07:32:23;5.80;;;3.80;;
69026;SDS011;56080;47.594;19.116;2022-07-29T07:37:24;5.80;;;3.80;;
69026;SDS011;56080;47.594;19.116;2022-07-29T07:42:23;6.40;;;4.00;;
69026;SDS011;56080;47.594;19.116;2022-07-29T07:47:23;6.40;;;4.00;;
69026;SDS011;56080;47.594;19.116;2022-07-29T07:52:24;7.40;;;4.20;;
69026;SDS011;56080;47.594;19.116;2022-07-29T07:57:23;7.40;;;4.20;;
69026;SDS011;56080;47.594;19.116;2022-07-29T08:02:23;6.80;;;4.30;;
69026;SDS011;56080;47.594;19.116;2022-07-29T08:07:25;6.80;;;4.30;;
69026;SDS011;56080;47.594;19.116;2022-07-29T08:12:22;5.20;;;4.00;;
69026;SDS011;56080;47.594;19.116;2022-07-29T08:17:22;5.20;;;4.00;;
69026;SDS011;56080;47.594;19.116;2022-07-29T08:22:23;6.90;;;4.20;;
69026;SDS011;56080;47.594;19.116;2022-07-29T08:27:33;6.90;;;4.20;;
69026;SDS011;56080;47.594;19.116;2022-07-29T08:32:23;8.20;;;4.50;;
69026;SDS011;56080;47.594;19.116;2022-07-29T08:37:23;8.20;;;4.50;;
69026;SDS011;56080;47.594;19.116;2022-07-29T08:42:23;8.20;;;4.70;;
69026;SDS011;56080;47.594;19.116;2022-07-29T08:47:25;8.20;;;4.70;;
69026;SDS011;56080;47.594;19.116;2022-07-29T08:52:25;7.00;;;4.80;;
69026;SDS011;56080;47.594;19.116;2022-07-29T08:57:25;7.00;;;4.80;;
69026;SDS011;56080;47.594;19.116;2022-07-29T09:02:29;6.30;;;4.40;;
69026;SDS011;56080;47.594;19.116;2022-07-29T09:07:27;6.30;;;4.40;;
69026;SDS011;56080;47.594;19.116;2022-07-29T09:12:23;6.20;;;4.40;;
69026;SDS011;56080;47.594;19.116;2022-07-29T09:17:40;6.20;;;4.40;;
69026;SDS011;56080;47.594;19.116;2022-07-29T09:22:32;7.00;;;4.60;;
69026;SDS011;56080;47.594;19.116;2022-07-29T09:27:32;7.00;;;4.60;;
69026;SDS011;56080;47.594;19.116;2022-07-29T09:32:23;5.90;;;4.10;;
69026;SDS011;56080;47.594;19.116;2022-07-29T09:37:32;5.90;;;4.10;;
69026;SDS011;56080;47.594;19.116;2022-07-29T09:42:30;5.80;;;4.40;;
69026;SDS011;56080;47.594;19.116;2022-07-29T09:47:25;5.80;;;4.40;;
69026;SDS011;56080;47.594;19.116;2022-07-29T09:52:23;6.10;;;4.30;;
69026;SDS011;56080;47.594;19.116;2022-07-29T09:57:33;6.10;;;4.30;;
69026;SDS011;56080;47.594;19.116;2022-07-29T10:02:27;5.50;;;4.50;;
69026;SDS011;56080;47.594;19.116;2022-07-29T10:07:23;5.50;;;4.50;;
69026;SDS011;56080;47.594;19.116;2022-07-29T10:12:24;5.50;;;4.50;;
69026;SDS011;56080;47.594;19.116;2022-07-29T10:17:23;6.10;;;4.60;;
69026;SDS011;56080;47.594;19.116;2022-07-29T10:22:23;6.10;;;4.60;;
69026;SDS011;56080;47.594;19.116;2022-07-29T10:27:23;5.90;;;3.60;;
69026;SDS011;56080;47.594;19.116;2022-07-29T10:32:36;6.10;;;4.00;;
69026;SDS011;56080;47.594;19.116;2022-07-29T10:42:24;6.10;;;4.00;;
69026;SDS011;56080;47.594;19.116;2022-07-29T10:47:31;6.10;;;4.30;;
69026;SDS011;56080;47.594;19.116;2022-07-29T10:52:23;6.10;;;4.30;;
69026;SDS011;56080;47.594;19.116;2022-07-29T10:57:28;6.00;;;4.20;;
69026;SDS011;56080;47.594;19.116;2022-07-29T11:02:43;5.90;;;4.20;;
69026;SDS011;56080;47.594;19.116;2022-07-29T11:07:26;5.90;;;4.20;;
69026;SDS011;56080;47.594;19.116;2022-07-29T11:17:24;5.40;;;3.40;;
69026;SDS011;56080;47.594;19.116;2022-07-29T11:22:36;5.40;;;3.40;;
69026;SDS011;56080;47.594;19.116;2022-07-29T11:27:32;5.50;;;3.80;;
69026;SDS011;56080;47.594;19.116;2022-07-29T11:32:39;5.50;;;3.80;;
69026;SDS011;56080;47.594;19.116;2022-07-29T11:37:24;5.60;;;3.70;;
69026;SDS011;56080;47.594;19.116;2022-07-29T11:47:29;4.80;;;3.30;;
69026;SDS011;56080;47.594;19.116;2022-07-29T11:52:23;4.80;;;3.30;;
69026;SDS011;56080;47.594;19.116;2022-07-29T11:57:26;6.20;;;3.40;;
69026;SDS011;56080;47.594;19.116;2022-07-29T12:02:48;6.20;;;3.40;;
69026;SDS011;56080;47.594;19.116;2022-07-29T12:07:27;4.90;;;3.10;;
69026;SDS011;56080;47.594;19.116;2022-07-29T12:12:25;4.90;;;3.10;;
69026;SDS011;56080;47.594;19.116;2022-07-29T12:17:34;4.70;;;2.60;;
69026;SDS011;56080;47.594;19.116;2022-07-29T12:22:33;4.70;;;2.60;;
69026;SDS011;56080;47.594;19.116;2022-07-29T12:27:26;6.10;;;2.60;;
69026;SDS011;56080;47.594;19.116;2022-07-29T12:37:23;5.10;;;2.80;;
69026;SDS011;56080;47.594;19.116;2022-07-29T12:42:25;5.10;;;2.80;;
69026;SDS011;56080;47.594;19.116;2022-07-29T12:47:23;6.40;;;3.00;;
69026;SDS011;56080;47.594;19.116;2022-07-29T12:52:33;6.40;;;3.00;;
69026;SDS011;56080;47.594;19.116;2022-07-29T12:57:31;6.50;;;3.40;;
69026;SDS011;56080;47.594;19.116;2022-07-29T13:02:31;6.50;;;3.40;;
69026;SDS011;56080;47.594;19.116;2022-07-29T13:07:34;8.90;;;6.20;;
69026;SDS011;56080;47.594;19.116;2022-07-29T13:12:24;8.90;;;6.20;;
69026;SDS011;56080;47.594;19.116;2022-07-29T13:17:27;9.70;;;8.70;;
69026;SDS011;56080;47.594;19.116;2022-07-29T13:22:25;9.70;;;8.70;;
69026;SDS011;56080;47.594;19.116;2022-07-29T13:27:26;6.10;;;3.10;;
69026;SDS011;56080;47.594;19.116;2022-07-29T13:32:23;6.10;;;3.10;;
69026;SDS011;56080;47.594;19.116;2022-07-29T13:37:23;4.70;;;3.30;;
69026;SDS011;56080;47.594;19.116;2022-07-29T13:42:23;4.70;;;3.30;;
69026;SDS011;56080;47.594;19.116;2022-07-29T13:47:23;8.00;;;5.70;;
69026;SDS011;56080;47.594;19.116;2022-07-29T13:52:23;8.00;;;5.70;;
69026;SDS011;56080;47.594;19.116;2022-07-29T13:57:23;5.30;;;3.60;;
69026;SDS011;56080;47.594;19.116;2022-07-29T14:02:26;5.30;;;3.60;;
69026;SDS011;56080;47.594;19.116;2022-07-29T14:07:27;7.00;;;5.80;;
69026;SDS011;56080;47.594;19.116;2022-07-29T14:12:23;7.00;;;5.80;;
69026;SDS011;56080;47.594;19.116;2022-07-29T14:17:23;7.00;;;4.00;;
69026;SDS011;56080;47.594;19.116;2022-07-29T14:22:23;7.00;;;4.00;;
69026;SDS011;56080;47.594;19.116;2022-07-29T14:27:23;5.60;;;3.70;;
69026;SDS011;56080;47.594;19.116;2022-07-29T14:32:25;5.60;;;3.70;;
69026;SDS011;56080;47.594;19.116;2022-07-29T14:37:26;5.80;;;4.00;;
69026;SDS011;56080;47.594;19.116;2022-07-29T14:42:23;5.80;;;4.00;;
69026;SDS011;56080;47.594;19.116;2022-07-29T14:47:23;5.10;;;3.50;;
69026;SDS011;56080;47.594;19.116;2022-07-29T14:52:23;5.10;;;3.50;;
69026;SDS011;56080;47.594;19.116;2022-07-29T14:57:23;5.00;;;3.70;;
69026;SDS011;56080;47.594;19.116;2022-07-29T15:02:23;5.00;;;3.70;;
69026;SDS011;56080;47.594;19.116;2022-07-29T15:07:23;6.10;;;4.60;;
69026;SDS011;56080;47.594;19.116;2022-07-29T15:17:23;6.00;;;3.30;;
69026;SDS011;56080;47.594;19.116;2022-07-29T15:22:23;6.00;;;3.30;;
69026;SDS011;56080;47.594;19.116;2022-07-29T15:27:24;5.10;;;3.50;;
69026;SDS011;56080;47.594;19.116;2022-07-29T15:32:24;5.10;;;3.50;;
69026;SDS011;56080;47.594;19.116;2022-07-29T15:37:23;6.20;;;3.70;;
69026;SDS011;56080;47.594;19.116;2022-07-29T15:42:23;6.20;;;3.70;;
69026;SDS011;56080;47.594;19.116;2022-07-29T15:47:23;5.30;;;3.60;;
69026;SDS011;56080;47.594;19.116;2022-07-29T15:52:23;5.30;;;3.60;;
69026;SDS011;56080;47.594;19.116;2022-07-29T15:57:23;7.00;;;3.30;;
69026;SDS011;56080;47.594;19.116;2022-07-29T16:02:23;7.00;;;3.30;;
69026;SDS011;56080;47.594;19.116;2022-07-29T16:07:24;5.00;;;2.60;;
69026;SDS011;56080;47.594;19.116;2022-07-29T16:12:26;5.00;;;2.60;;
69026;SDS011;56080;47.594;19.116;2022-07-29T16:17:26;5.60;;;3.90;;
69026;SDS011;56080;47.594;19.116;2022-07-29T16:22:23;5.60;;;3.90;;
69026;SDS011;56080;47.594;19.116;2022-07-29T16:27:23;5.30;;;3.50;;
69026;SDS011;56080;47.594;19.116;2022-07-29T16:32:23;5.30;;;3.50;;
69026;SDS011;56080;47.594;19.116;2022-07-29T16:37:24;5.80;;;3.90;;
69026;SDS011;56080;47.594;19.116;2022-07-29T16:42:33;5.80;;;3.90;;
69026;SDS011;56080;47.594;19.116;2022-07-29T16:47:23;5.10;;;3.60;;
69026;SDS011;56080;47.594;19.116;2022-07-29T16:52:24;5.10;;;3.60;;
69026;SDS011;56080;47.594;19.116;2022-07-29T17:02:23;5.50;;;3.80;;
69026;SDS011;56080;47.594;19.116;2022-07-29T17:07:23;5.20;;;3.90;;
69026;SDS011;56080;47.594;19.116;2022-07-29T17:12:23;5.20;;;3.90;;
69026;SDS011;56080;47.594;19.116;2022-07-29T17:17:31;6.40;;;3.20;;
69026;SDS011;56080;47.594;19.116;2022-07-29T17:22:29;6.40;;;3.20;;
69026;SDS011;56080;47.594;19.116;2022-07-29T17:27:23;6.20;;;3.00;;
69026;SDS011;56080;47.594;19.116;2022-07-29T17:32:23;6.20;;;3.00;;
69026;SDS011;56080;47.594;19.116;2022-07-29T17:37:23;5.90;;;3.40;;
69026;SDS011;56080;47.594;19.116;2022-07-29T17:42:23;5.90;;;3.40;;
69026;SDS011;56080;47.594;19.116;2022-07-29T17:47:27;6.20;;;3.30;;
69026;SDS011;56080;47.594;19.116;2022-07-29T17:52:23;6.20;;;3.30;;
69026;SDS011;56080;47.594;19.116;2022-07-29T17:57:23;7.20;;;3.90;;
69026;SDS011;56080;47.594;19.116;2022-07-29T18:02:23;7.20;;;3.90;;
69026;SDS011;56080;47.594;19.116;2022-07-29T18:07:23;5.40;;;3.40;;
69026;SDS011;56080;47.594;19.116;2022-07-29T18:12:23;5.40;;;3.40;;
69026;SDS011;56080;47.594;19.116;2022-07-29T18:17:23;6.00;;;4.00;;
69026;SDS011;56080;47.594;19.116;2022-07-29T18:22:24;6.00;;;4.00;;
69026;SDS011;56080;47.594;19.116;2022-07-29T18:27:23;6.60;;;4.00;;
69026;SDS011;56080;47.594;19.116;2022-07-29T18:32:23;6.60;;;4.00;;
69026;SDS011;56080;47.594;19.116;2022-07-29T18:37:23;6.30;;;4.30;;
69026;SDS011;56080;47.594;19.116;2022-07-29T18:42:23;6.30;;;4.30;;
69026;SDS011;56080;47.594;19.116;2022-07-29T18:52:23;6.10;;;4.30;;
69026;SDS011;56080;47.594;19.116;2022-07-29T18:57:33;5.80;;;3.90;;
69026;SDS011;56080;47.594;19.116;2022-07-29T19:07:23;7.10;;;4.50;;
69026;SDS011;56080;47.594;19.116;2022-07-29T19:12:23;7.10;;;4.50;;
69026;SDS011;56080;47.594;19.116;2022-07-29T19:17:23;6.70;;;4.30;;
69026;SDS011;56080;47.594;19.116;2022-07-29T19:22:23;6.70;;;4.30;;
69026;SDS011;56080;47.594;19.116;2022-07-29T19:27:23;7.90;;;4.50;;
69026;SDS011;56080;47.594;19.116;2022-07-29T19:32:23;7.90;;;4.50;;
69026;SDS011;56080;47.594;19.116;2022-07-29T19:42:23;6.60;;;4.60;;
69026;SDS011;56080;47.594;19.116;2022-07-29T19:47:27;6.60;;;4.70;;
69026;SDS011;56080;47.594;19.116;2022-07-29T19:52:23;6.60;;;4.70;;
69026;SDS011;56080;47.594;19.116;2022-07-29T19:57:24;6.40;;;4.90;;
69026;SDS011;56080;47.594;19.116;2022-07-29T20:02:23;6.40;;;4.90;;
69026;SDS011;56080;47.594;19.116;2022-07-29T20:07:23;6.10;;;4.60;;
69026;SDS011;56080;47.594;19.116;2022-07-29T20:12:23;6.10;;;4.60;;
69026;SDS011;56080;47.594;19.116;2022-07-29T20:17:23;6.90;;;4.80;;
69026;SDS011;56080;47.594;19.116;2022-07-29T20:22:31;6.90;;;4.80;;
69026;SDS011;56080;47.594;19.116;2022-07-29T20:27:24;6.10;;;4.40;;
69026;SDS011;56080;47.594;19.116;2022-07-29T20:32:23;6.10;;;4.40;;
69026;SDS011;56080;47.594;19.116;2022-07-29T20:37:25;8.20;;;4.90;;
69026;SDS011;56080;47.594;19.116;2022-07-29T20:47:24;7.10;;;4.40;;
69026;SDS011;56080;47.594;19.116;2022-07-29T20:52:23;7.10;;;4.40;;
69026;SDS011;56080;47.594;19.116;2022-07-29T20:57:23;6.70;;;4.70;;
69026;SDS011;56080;47.594;19.116;2022-07-29T21:02:23;6.70;;;4.70;;
69026;SDS011;56080;47.594;19.116;2022-07-29T21:07:23;6.30;;;4.60;;
69026;SDS011;56080;47.594;19.116;2022-07-29T21:12:23;6.30;;;4.60;;
69026;SDS011;56080;47.594;19.116;2022-07-29T21:22:23;6.40;;;4.80;;
69026;SDS011;56080;47.594;19.116;2022-07-29T21:27:42;6.80;;;4.60;;
69026;SDS011;56080;47.594;19.116;2022-07-29T21:32:33;6.80;;;4.60;;
69026;SDS011;56080;47.594;19.116;2022-07-29T21:37:23;7.20;;;5.00;;
69026;SDS011;56080;47.594;19.116;2022-07-29T21:42:23;7.20;;;5.00;;
69026;SDS011;56080;47.594;19.116;2022-07-29T21:47:23;6.90;;;5.00;;
69026;SDS011;56080;47.594;19.116;2022-07-29T21:52:23;6.90;;;5.00;;
69026;SDS011;56080;47.594;19.116;2022-07-29T21:57:23;6.60;;;4.80;;
69026;SDS011;56080;47.594;19.116;2022-07-29T22:02:23;6.60;;;4.80;;
69026;SDS011;56080;47.594;19.116;2022-07-29T22:07:23;6.50;;;5.00;;
69026;SDS011;56080;47.594;19.116;2022-07-29T22:12:23;6.50;;;5.00;;
69026;SDS011;56080;47.594;19.116;2022-07-29T22:17:23;6.70;;;5.10;;
69026;SDS011;56080;47.594;19.116;2022-07-29T22:22:23;6.70;;;5.10;;
69026;SDS011;56080;47.594;19.116;2022-07-29T22:27:23;6.20;;;4.90;;
69026;SDS011;56080;47.594;19.116;2022-07-29T22:32:23;6.20;;;4.90;;
69026;SDS011;56080;47.594;19.116;2022-07-29T22:37:23;7.40;;;5.10;;
69026;SDS011;56080;47.594;19.116;2022-07-29T22:42:23;7.40;;;5.10;;
69026;SDS011;56080;47.594;19.116;2022-07-29T22:47:23;6.40;;;5.10;;
69026;SDS011;56080;47.594;19.116;2022-07-29T22:52:25;6.40;;;5.10;;
69026;SDS011;56080;47.594;19.116;2022-07-29T22:57:23;6.30;;;4.90;;
69026;SDS011;56080;47.594;19.116;2022-07-29T23:02:23;6.30;;;4.90;;
69026;SDS011;56080;47.594;19.116;2022-07-29T23:07:23;6.50;;;5.00;;
69026;SDS011;56080;47.594;19.116;2022-07-29T23:12:23;6.50;;;5.00;;
69026;SDS011;56080;47.594;19.116;2022-07-29T23:17:23;6.80;;;4.90;;
69026;SDS011;56080;47.594;19.116;2022-07-29T23:22:23;6.80;;;4.90;;
69026;SDS011;56080;47.594;19.116;2022-07-29T23:27:23;7.00;;;4.70;;
69026;SDS011;56080;47.594;19.116;2022-07-29T23:32:23;7.00;;;4.70;;
69026;SDS011;56080;47.594;19.116;2022-07-29T23:37:23;6.80;;;4.70;;
69026;SDS011;56080;47.594;19.116;2022-07-29T23:42:23;6.80;;;4.70;;
69026;SDS011;56080;47.594;19.116;2022-07-29T23:47:23;6.90;;;4.80;;
69026;SDS011;56080;47.594;19.116;2022-07-29T23:52:23;6.90;;;4.80;;
69026;SDS011;56080;47.594;19.116;2022-07-29T23:57:23;7.30;;;5.00;;
